mardi 4 février 2014

ALERTE SPOTTING 04/02/14

32A G-EZWO easyJet
   U24292/U24207  11h20/11h55
  U24208/U24247  16h00/17h45
   arv  U24250  22h25

320 F-HDMF Air Corsica (cyclistes)
   XK4533/XK4516  13h55/14h45
  XK4517/4514  20h00/21h05

CNJ D-IAMO
   arv  QGA570A    18h50

 Manque les prévisions/immats Air Europa / Flybe / certains Air Algérie
*** Heures en Local Time / prévisions soumises
 à modifications de dernières minutes ***

le TAF de la journée

METAR: LFPO 040830Z 19006KT 9999 SCT010 BKN045 04/03 Q1008 TEMPO
BKN012=
 

TAF LONG: LFPO 040500Z 0406/0512 19010KT 9999 SCT020 PROB30 TEMPO 0406/0410
BKN012 BECMG 0418/0420 16015G25KT CAVOK BECMG 0423/0501 BKN012 TEMPO
0501/0506 3000 -RA SCT008 BKN014 PROB40 TEMPO 0501/0512 19020G30KT
BECMG 0505/0507 20015G25KT SCT020 TEMPO 0506/0512 4000 SHRA BKN018=
 


Les logs des jours précédents :
 http://www.airkalo.com/ORLYAVIATION/Logdumois.html